Terminal Aerodrome Forecast
Issued by NWS Mt. Holly, NJ

Home | Current Version | Previous Version | Text Only | Print | Product List | Glossary On
Versions: 1 2 3 4 5 6 7 8 9 10 11 12 13 14 15 16 17 18 19 20 21 22 23 24 25 26 27
000
FTUS41 KPHI 191120
TAFPHL
TAF
KPHL 191120Z 1912/2018 27015G31KT P6SM SCT015 BKN070
     FM191300 27014G34KT P6SM SCT025 BKN080
     FM191400 29020G41KT P6SM SCT035
     FM191700 29015G33KT P6SM SKC
     FM192100 29012G25KT P6SM SKC
     FM200800 28011KT P6SM SKC=

USA.gov is the U.S. government's official web portal to all federal, state and local government web resources and services.